createdAt,value
2017-06-15T00:01:30.700Z,4
2017-06-15T00:11:30.716Z,4
2017-06-15T00:21:30.621Z,4
2017-06-15T00:31:30.702Z,4
2017-06-15T00:41:30.683Z,5
2017-06-15T00:51:30.582Z,4
2017-06-15T01:01:30.995Z,5
2017-06-15T01:11:30.648Z,5
2017-06-15T01:21:30.738Z,6
2017-06-15T01:31:30.656Z,6
2017-06-15T01:41:30.626Z,7
2017-06-15T01:51:30.726Z,7
2017-06-15T02:01:30.654Z,6
2017-06-15T02:11:30.620Z,6
2017-06-15T02:21:30.683Z,6
2017-06-15T02:31:30.634Z,6
2017-06-15T02:41:30.728Z,6
2017-06-15T02:51:30.722Z,7
2017-06-15T03:01:30.671Z,6
2017-06-15T03:11:30.702Z,6
2017-06-15T03:21:30.601Z,6
2017-06-15T03:31:30.576Z,5
2017-06-15T03:41:30.611Z,6
2017-06-15T03:51:30.580Z,6
2017-06-15T04:01:30.586Z,6
2017-06-15T04:11:30.575Z,7
2017-06-15T04:21:30.565Z,7
2017-06-15T04:31:30.581Z,10
2017-06-15T04:41:30.584Z,7
2017-06-15T04:51:30.579Z,8
2017-06-15T05:01:30.586Z,7
2017-06-15T05:11:30.562Z,7
2017-06-15T05:21:30.584Z,8
2017-06-15T05:31:30.652Z,8
2017-06-15T05:41:30.593Z,6
2017-06-15T05:51:30.627Z,7
2017-06-15T06:01:30.697Z,6
2017-06-15T06:11:30.589Z,5
2017-06-15T06:21:30.650Z,5
2017-06-15T06:31:30.596Z,5
2017-06-15T06:41:30.620Z,5
2017-06-15T06:51:30.611Z,5
2017-06-15T07:01:30.652Z,4
2017-06-15T07:11:30.625Z,4
2017-06-15T07:21:30.648Z,5
2017-06-15T07:31:30.657Z,5
2017-06-15T07:41:30.655Z,5
2017-06-15T07:51:30.700Z,5
2017-06-15T08:01:30.640Z,5
2017-06-15T08:11:30.738Z,4
2017-06-15T08:21:30.662Z,4
2017-06-15T08:31:30.705Z,4
2017-06-15T08:41:30.687Z,4
2017-06-15T08:51:30.709Z,4
2017-06-15T09:01:30.703Z,5
2017-06-15T09:11:30.718Z,5
2017-06-15T09:21:30.751Z,5
2017-06-15T09:31:30.719Z,7
2017-06-15T09:41:30.729Z,7
2017-06-15T09:51:30.716Z,6
2017-06-15T10:01:30.808Z,7
2017-06-15T10:11:31.428Z,7
2017-06-15T10:21:30.711Z,8
2017-06-15T10:31:30.810Z,9
2017-06-15T10:41:30.737Z,7
2017-06-15T10:51:30.769Z,7
2017-06-15T11:01:30.772Z,7
2017-06-15T11:11:30.753Z,8
2017-06-15T11:21:30.744Z,7
2017-06-15T11:31:30.770Z,7
2017-06-15T11:41:30.855Z,7
2017-06-15T11:51:30.818Z,6
2017-06-15T12:01:30.903Z,7
2017-06-15T12:11:30.812Z,7
2017-06-15T12:21:30.755Z,7
2017-06-15T12:31:30.785Z,6
2017-06-15T12:41:30.765Z,6
2017-06-15T12:51:30.938Z,6
2017-06-15T13:01:30.869Z,5
2017-06-15T13:11:30.849Z,5
2017-06-15T13:21:30.951Z,5
2017-06-15T13:31:30.960Z,5
2017-06-15T13:41:31.008Z,6
2017-06-15T13:51:30.902Z,7
2017-06-15T14:01:30.913Z,6
2017-06-15T14:11:30.922Z,6
2017-06-15T14:21:30.783Z,7
2017-06-15T14:31:31.181Z,7
2017-06-15T14:41:30.871Z,7
2017-06-15T14:51:30.903Z,8
2017-06-15T15:01:30.839Z,8
2017-06-15T15:11:30.883Z,9
2017-06-15T15:21:30.831Z,12
2017-06-15T15:31:30.802Z,8
2017-06-15T15:41:30.782Z,8
2017-06-15T15:51:30.888Z,11
2017-06-15T16:01:30.846Z,12
2017-06-15T16:11:30.810Z,14
2017-06-15T16:21:30.795Z,17
2017-06-15T16:31:30.931Z,11
2017-06-15T16:41:30.821Z,12
2017-06-15T16:51:32.320Z,11
2017-06-15T17:01:30.824Z,11
2017-06-15T17:11:30.849Z,12
2017-06-15T17:21:30.815Z,14
2017-06-15T17:31:30.779Z,13
2017-06-15T17:41:30.799Z,17
2017-06-15T17:51:30.820Z,22
2017-06-15T18:01:30.874Z,22
2017-06-15T18:11:30.815Z,49
2017-06-15T18:21:30.798Z,27
2017-06-15T18:31:30.861Z,24
2017-06-15T18:41:30.846Z,18
2017-06-15T18:51:30.860Z,10
2017-06-15T19:01:30.910Z,5
2017-06-15T19:11:30.892Z,4
2017-06-15T19:21:30.858Z,4
2017-06-15T19:31:30.801Z,5
2017-06-15T19:41:30.872Z,5
2017-06-15T19:51:30.879Z,6
2017-06-15T20:01:30.856Z,6
2017-06-15T20:11:30.829Z,8
2017-06-15T20:21:30.861Z,7
2017-06-15T20:31:30.851Z,8
2017-06-15T20:41:30.904Z,9
2017-06-15T20:51:30.847Z,9
2017-06-15T21:01:30.966Z,8
2017-06-15T21:11:30.915Z,10
2017-06-15T21:21:30.854Z,9
2017-06-15T21:31:30.826Z,11
2017-06-15T21:41:30.816Z,10
2017-06-15T21:51:30.844Z,10
2017-06-15T22:01:30.873Z,11
2017-06-15T22:11:30.841Z,13
2017-06-15T22:21:30.824Z,11
2017-06-15T22:31:30.838Z,14
2017-06-15T22:41:30.863Z,11
2017-06-15T22:51:30.883Z,10
2017-06-15T23:01:30.829Z,9
2017-06-15T23:11:30.833Z,8
2017-06-15T23:21:30.821Z,7
2017-06-15T23:31:30.886Z,6
2017-06-15T23:41:30.790Z,7
2017-06-15T23:51:30.841Z,6
